createdAt,value
2018-12-01T00:05:26.345Z,84.3
2018-12-01T00:15:29.755Z,84.6
2018-12-01T00:25:33.190Z,84.6
2018-12-01T00:35:36.635Z,84.7
2018-12-01T00:45:40.042Z,84.5
2018-12-01T00:55:43.497Z,84.9
2018-12-01T01:05:46.914Z,84.4
2018-12-01T01:15:50.325Z,84.2
2018-12-01T01:25:53.718Z,84.1
2018-12-01T01:35:57.144Z,84.4
2018-12-01T01:46:00.573Z,84.9
2018-12-01T01:56:04.019Z,84.7
2018-12-01T02:06:07.447Z,84.8
2018-12-01T02:16:10.842Z,84
2018-12-01T02:26:14.270Z,83.7
2018-12-01T02:36:17.686Z,83.9
2018-12-01T02:46:21.135Z,84.1
2018-12-01T02:56:24.569Z,84.1
2018-12-01T03:06:28.002Z,84
2018-12-01T03:16:31.438Z,83.9
2018-12-01T03:26:34.886Z,84
2018-12-01T03:36:38.298Z,83.8
2018-12-01T03:46:41.714Z,83.8
2018-12-01T03:56:45.104Z,83.4
2018-12-01T04:06:48.514Z,83.4
2018-12-01T04:16:51.952Z,83.1
2018-12-01T04:26:55.394Z,82.8
2018-12-01T04:36:58.830Z,82.7
2018-12-01T04:47:02.258Z,83.2
2018-12-01T04:57:05.699Z,82.8
2018-12-01T05:07:09.117Z,83
2018-12-01T05:17:12.537Z,82.9
2018-12-01T05:27:15.947Z,83.7
2018-12-01T05:37:19.333Z,83.3
2018-12-01T05:47:22.748Z,83.8
2018-12-01T05:57:26.185Z,84
2018-12-01T06:07:29.642Z,83.8
2018-12-01T06:17:33.054Z,83.4
2018-12-01T06:27:36.519Z,83.7
2018-12-01T06:37:39.950Z,83.8
2018-12-01T06:47:43.375Z,83.5
2018-12-01T06:57:46.814Z,83.9
2018-12-01T07:07:50.271Z,83.5
2018-12-01T07:17:53.683Z,83.2
2018-12-01T07:27:57.104Z,83.4
2018-12-01T07:38:00.548Z,83.2
2018-12-01T07:48:03.979Z,83.5
2018-12-01T07:58:07.435Z,84.2
2018-12-01T08:08:10.873Z,83.8
2018-12-01T08:18:14.325Z,83.1
2018-12-01T08:28:17.733Z,83.4
2018-12-01T08:38:21.152Z,83.8
2018-12-01T08:48:24.577Z,82.8
2018-12-01T08:58:28.003Z,83.2
2018-12-01T09:08:31.448Z,83.3
2018-12-01T09:18:34.885Z,83.1
2018-12-01T09:28:38.327Z,83.4
2018-12-01T09:38:41.781Z,82.9
2018-12-01T09:48:45.207Z,79.8
2018-12-01T09:58:48.613Z,79.4
2018-12-01T10:08:52.080Z,79.8
2018-12-01T10:18:56.727Z,78.5
2018-12-01T10:29:00.159Z,78.4
2018-12-01T10:39:03.888Z,78
2018-12-01T10:49:07.322Z,78.4
2018-12-01T10:59:10.748Z,78.5
2018-12-01T11:09:14.172Z,78.7
2018-12-01T11:19:18.631Z,76.8
2018-12-01T11:29:22.082Z,76.4
2018-12-01T11:39:25.509Z,76.5
2018-12-01T11:49:28.938Z,76.7
2018-12-01T11:59:32.355Z,76.7
2018-12-01T12:09:35.792Z,76.5
2018-12-01T12:19:39.736Z,77.1
2018-12-01T12:29:43.171Z,75.9
2018-12-01T12:39:46.615Z,75.4
2018-12-01T12:49:50.054Z,74.7
2018-12-01T12:59:53.492Z,74.7
2018-12-01T13:09:56.932Z,74.4
2018-12-01T13:20:00.362Z,74.2
2018-12-01T13:30:03.783Z,73.9
2018-12-01T13:40:07.194Z,74
2018-12-01T13:50:10.639Z,73.5
2018-12-01T14:00:14.066Z,72.4
2018-12-01T14:10:17.480Z,72.7
2018-12-01T14:20:20.912Z,73
2018-12-01T14:30:24.354Z,72
2018-12-01T14:40:27.766Z,73
2018-12-01T14:50:31.204Z,74.8
2018-12-01T15:00:34.649Z,75.1
2018-12-01T15:10:38.058Z,75.1
2018-12-01T15:20:41.486Z,75.5
2018-12-01T15:30:44.939Z,75.1
2018-12-01T15:40:48.392Z,75.3
2018-12-01T15:50:51.825Z,76.5
2018-12-01T16:00:55.274Z,76.7
2018-12-01T16:10:58.712Z,76.8
2018-12-01T16:21:02.152Z,76.9
2018-12-01T16:31:05.559Z,77
2018-12-01T16:41:09.002Z,78.1
2018-12-01T16:51:13.420Z,77.4
2018-12-01T17:01:16.844Z,77.6
2018-12-01T17:11:20.278Z,77.6
2018-12-01T17:21:23.683Z,78.1
2018-12-01T17:31:27.147Z,77.1
2018-12-01T17:41:30.566Z,77.6
2018-12-01T17:51:34.129Z,78
2018-12-01T18:01:37.680Z,77.8
2018-12-01T18:11:41.116Z,78.1
2018-12-01T18:21:44.535Z,77.6
2018-12-01T18:31:48.983Z,77.8
2018-12-01T18:41:52.402Z,77.8
2018-12-01T18:51:55.834Z,77
2018-12-01T19:01:59.260Z,77.2
2018-12-01T19:12:02.725Z,77.7
2018-12-01T19:22:06.145Z,78
2018-12-01T19:32:09.602Z,77.2
2018-12-01T19:42:13.014Z,77.4
2018-12-01T19:52:16.468Z,77.9
2018-12-01T20:02:19.905Z,78.5
2018-12-01T20:12:23.310Z,78.8
2018-12-01T20:22:26.710Z,78.6
2018-12-01T20:32:30.126Z,78.8
2018-12-01T20:42:33.536Z,78.2
2018-12-01T20:52:36.980Z,78
2018-12-01T21:02:40.384Z,78.2
2018-12-01T21:12:43.838Z,77.5
2018-12-01T21:22:47.259Z,77.8
2018-12-01T21:32:50.696Z,78.5
2018-12-01T21:42:54.119Z,77.7
2018-12-01T21:52:57.583Z,78.3
2018-12-01T22:03:00.995Z,78.1
2018-12-01T22:13:04.461Z,78
2018-12-01T22:23:07.855Z,78.6
2018-12-01T22:33:11.275Z,77.8
2018-12-01T22:43:14.715Z,79.1
2018-12-01T22:53:18.168Z,78.8
2018-12-01T23:03:21.584Z,79.2
2018-12-01T23:13:25.033Z,79.3
2018-12-01T23:23:28.594Z,78.6
2018-12-01T23:33:32.022Z,78.4
2018-12-01T23:43:35.434Z,78.9
2018-12-01T23:53:38.925Z,79.3
